sensor_id;sensor_type;location;lat;lon;timestamp;pressure;altitude;pressure_sealevel;temperature;humidity
48390;BME280;34643;47.964;7.982;2023-04-08T00:01:33;96972.63;;;15.15;50.54
48390;BME280;34643;47.964;7.982;2023-04-08T00:06:34;96968.38;;;15.14;50.47
48390;BME280;34643;47.964;7.982;2023-04-08T00:11:34;96969.28;;;15.13;50.59
48390;BME280;34643;47.964;7.982;2023-04-08T00:16:35;96964.19;;;15.11;50.65
48390;BME280;34643;47.964;7.982;2023-04-08T00:21:35;96966.78;;;15.11;50.48
48390;BME280;34643;47.964;7.982;2023-04-08T00:26:35;96962.44;;;15.12;50.54
48390;BME280;34643;47.964;7.982;2023-04-08T00:31:36;96968.56;;;15.11;50.58
48390;BME280;34643;47.964;7.982;2023-04-08T00:36:37;96960.84;;;15.09;50.58
48390;BME280;34643;47.964;7.982;2023-04-08T00:41:37;96965.22;;;15.09;50.59
48390;BME280;34643;47.964;7.982;2023-04-08T00:46:38;96966.13;;;15.08;50.50
48390;BME280;34643;47.964;7.982;2023-04-08T00:51:39;96973.94;;;15.08;50.58
48390;BME280;34643;47.964;7.982;2023-04-08T00:56:39;96967.09;;;15.07;50.71
48390;BME280;34643;47.964;7.982;2023-04-08T01:01:46;96976.53;;;15.08;50.56
48390;BME280;34643;47.964;7.982;2023-04-08T01:06:58;96975.81;;;15.06;50.54
48390;BME280;34643;47.964;7.982;2023-04-08T01:12:01;96966.31;;;15.05;50.76
48390;BME280;34643;47.964;7.982;2023-04-08T01:17:03;96968.91;;;15.05;50.65
48390;BME280;34643;47.964;7.982;2023-04-08T01:22:28;96958.63;;;15.03;50.52
48390;BME280;34643;47.964;7.982;2023-04-08T01:27:32;96961.25;;;15.03;50.64
48390;BME280;34643;47.964;7.982;2023-04-08T01:32:34;96949.97;;;15.02;50.47
48390;BME280;34643;47.964;7.982;2023-04-08T01:37:36;96954.34;;;15.02;50.58
48390;BME280;34643;47.964;7.982;2023-04-08T01:42:37;96957.88;;;15.01;50.69
48390;BME280;34643;47.964;7.982;2023-04-08T01:47:38;96962.25;;;15.00;50.71
48390;BME280;34643;47.964;7.982;2023-04-08T01:52:38;96957.88;;;15.01;50.60
48390;BME280;34643;47.964;7.982;2023-04-08T01:57:39;96962.25;;;15.00;50.71
48390;BME280;34643;47.964;7.982;2023-04-08T02:02:41;96967.53;;;14.99;50.72
48390;BME280;34643;47.964;7.982;2023-04-08T02:07:42;96967.53;;;14.99;50.55
48390;BME280;34643;47.964;7.982;2023-04-08T02:12:44;96976.28;;;14.98;50.60
48390;BME280;34643;47.964;7.982;2023-04-08T02:17:46;96970.22;;;14.97;50.82
48390;BME280;34643;47.964;7.982;2023-04-08T02:22:52;96971.19;;;14.96;50.59
48390;BME280;34643;47.964;7.982;2023-04-08T02:27:56;96969.50;;;14.95;50.52
48390;BME280;34643;47.964;7.982;2023-04-08T02:32:59;96977.28;;;14.95;50.70
48390;BME280;34643;47.964;7.982;2023-04-08T02:38:00;96979.06;;;14.95;50.65
48390;BME280;34643;47.964;7.982;2023-04-08T02:43:01;96975.63;;;14.94;50.91
48390;BME280;34643;47.964;7.982;2023-04-08T02:48:02;96972.19;;;14.94;50.75
48390;BME280;34643;47.964;7.982;2023-04-08T02:53:02;96964.50;;;14.92;50.70
48390;BME280;34643;47.964;7.982;2023-04-08T02:58:05;96971.44;;;14.92;50.70
48390;BME280;34643;47.964;7.982;2023-04-08T03:03:05;96971.44;;;14.92;50.64
48390;BME280;34643;47.964;7.982;2023-04-08T03:08:05;96975.81;;;14.91;50.73
48390;BME280;34643;47.964;7.982;2023-04-08T03:13:06;96971.53;;;14.90;50.92
48390;BME280;34643;47.964;7.982;2023-04-08T03:18:06;96975.91;;;14.90;50.50
48390;BME280;34643;47.964;7.982;2023-04-08T03:23:06;96968.19;;;14.88;50.62
48390;BME280;34643;47.964;7.982;2023-04-08T03:28:07;96974.22;;;14.89;50.75
48390;BME280;34643;47.964;7.982;2023-04-08T03:33:07;96976.94;;;14.87;50.99
48390;BME280;34643;47.964;7.982;2023-04-08T03:38:07;96976.94;;;14.87;50.75
48390;BME280;34643;47.964;7.982;2023-04-08T03:43:08;96982.13;;;14.87;50.76
48390;BME280;34643;47.964;7.982;2023-04-08T03:48:08;96980.47;;;14.86;50.80
48390;BME280;34643;47.964;7.982;2023-04-08T03:53:08;96968.38;;;14.85;50.57
48390;BME280;34643;47.964;7.982;2023-04-08T03:58:11;96972.75;;;14.85;50.63
48390;BME280;34643;47.964;7.982;2023-04-08T04:03:11;96969.31;;;14.84;50.70
48390;BME280;34643;47.964;7.982;2023-04-08T04:08:12;96971.09;;;14.83;50.78
48390;BME280;34643;47.964;7.982;2023-04-08T04:13:12;96969.41;;;14.82;50.79
48390;BME280;34643;47.964;7.982;2023-04-08T04:18:12;96973.78;;;14.82;50.73
48390;BME280;34643;47.964;7.982;2023-04-08T04:23:13;96971.19;;;14.82;50.83
48390;BME280;34643;47.964;7.982;2023-04-08T04:28:13;96978.25;;;14.80;50.85
48390;BME280;34643;47.964;7.982;2023-04-08T04:33:13;96978.25;;;14.80;50.84
48390;BME280;34643;47.964;7.982;2023-04-08T04:38:13;96980.84;;;14.80;50.79
48390;BME280;34643;47.964;7.982;2023-04-08T04:43:15;96977.38;;;14.79;50.85
48390;BME280;34643;47.964;7.982;2023-04-08T04:48:15;96990.38;;;14.79;50.85
48390;BME280;34643;47.964;7.982;2023-04-08T04:53:15;96987.88;;;14.78;50.80
48390;BME280;34643;47.964;7.982;2023-04-08T04:58:16;97000.88;;;14.78;50.79
48390;BME280;34643;47.964;7.982;2023-04-08T05:03:16;97007.00;;;14.77;50.55
48390;BME280;34643;47.964;7.982;2023-04-08T05:08:17;97007.84;;;14.77;50.78
48390;BME280;34643;47.964;7.982;2023-04-08T05:13:17;97005.31;;;14.76;50.83
48390;BME280;34643;47.964;7.982;2023-04-08T05:18:17;97011.47;;;14.75;50.70
48390;BME280;34643;47.964;7.982;2023-04-08T05:23:18;97024.47;;;14.75;50.91
48390;BME280;34643;47.964;7.982;2023-04-08T05:28:19;97027.06;;;14.75;50.87
48390;BME280;34643;47.964;7.982;2023-04-08T05:33:19;97022.78;;;14.74;50.96
48390;BME280;34643;47.964;7.982;2023-04-08T05:38:20;97013.31;;;14.73;50.88
48390;BME280;34643;47.964;7.982;2023-04-08T05:43:20;97021.13;;;14.73;50.70
48390;BME280;34643;47.964;7.982;2023-04-08T05:48:21;97027.13;;;14.73;50.86
48390;BME280;34643;47.964;7.982;2023-04-08T05:53:21;97027.22;;;14.72;50.79
48390;BME280;34643;47.964;7.982;2023-04-08T05:58:23;97033.25;;;14.72;50.87
48390;BME280;34643;47.964;7.982;2023-04-08T06:03:23;97035.84;;;14.72;50.74
48390;BME280;34643;47.964;7.982;2023-04-08T06:08:24;97050.63;;;14.72;50.83
48390;BME280;34643;47.964;7.982;2023-04-08T06:13:24;97056.72;;;14.71;50.73
48390;BME280;34643;47.964;7.982;2023-04-08T06:18:26;97060.19;;;14.71;50.89
48390;BME280;34643;47.964;7.982;2023-04-08T06:23:26;97052.47;;;14.70;50.72
48390;BME280;34643;47.964;7.982;2023-04-08T06:28:28;97059.44;;;14.69;50.88
48390;BME280;34643;47.964;7.982;2023-04-08T06:33:28;97048.94;;;14.71;50.80
48390;BME280;34643;47.964;7.982;2023-04-08T06:38:28;97054.25;;;14.69;50.89
48390;BME280;34643;47.964;7.982;2023-04-08T06:43:29;97060.25;;;14.70;50.72
48390;BME280;34643;47.964;7.982;2023-04-08T06:48:30;97059.44;;;14.69;50.90
48390;BME280;34643;47.964;7.982;2023-04-08T06:53:30;97066.28;;;14.70;50.91
48390;BME280;34643;47.964;7.982;2023-04-08T06:58:32;97070.66;;;14.70;50.65
48390;BME280;34643;47.964;7.982;2023-04-08T07:03:32;97073.25;;;14.70;50.94
48390;BME280;34643;47.964;7.982;2023-04-08T07:08:32;97078.44;;;14.70;50.86
48390;BME280;34643;47.964;7.982;2023-04-08T07:13:33;97083.66;;;14.70;50.76
48390;BME280;34643;47.964;7.982;2023-04-08T07:18:33;97079.38;;;14.69;50.95
48390;BME280;34643;47.964;7.982;2023-04-08T07:23:33;97081.13;;;14.68;50.96
48390;BME280;34643;47.964;7.982;2023-04-08T07:28:34;97085.41;;;14.69;50.73
48390;BME280;34643;47.964;7.982;2023-04-08T07:33:34;97094.03;;;14.70;50.77
48390;BME280;34643;47.964;7.982;2023-04-08T07:38:34;97091.53;;;14.68;50.86
48390;BME280;34643;47.964;7.982;2023-04-08T07:43:35;97096.66;;;14.70;51.01
48390;BME280;34643;47.964;7.982;2023-04-08T07:48:38;97087.25;;;14.67;50.99
48390;BME280;34643;47.964;7.982;2023-04-08T07:53:39;97088.09;;;14.68;51.09
48390;BME280;34643;47.964;7.982;2023-04-08T07:58:39;97096.72;;;14.68;50.63
48390;BME280;34643;47.964;7.982;2023-04-08T08:03:40;97092.44;;;14.67;50.78
48390;BME280;34643;47.964;7.982;2023-04-08T08:08:40;97100.25;;;14.67;50.75
48390;BME280;34643;47.964;7.982;2023-04-08T08:13:40;97095.03;;;14.67;50.98
48390;BME280;34643;47.964;7.982;2023-04-08T08:18:41;97095.91;;;14.68;50.64
48390;BME280;34643;47.964;7.982;2023-04-08T08:23:41;97099.41;;;14.67;50.92
48390;BME280;34643;47.964;7.982;2023-04-08T08:28:41;97104.59;;;14.67;50.79
48390;BME280;34643;47.964;7.982;2023-04-08T08:33:42;97099.41;;;14.67;51.06
48390;BME280;34643;47.964;7.982;2023-04-08T08:38:42;97115.00;;;14.67;50.85
48390;BME280;34643;47.964;7.982;2023-04-08T08:43:42;97118.50;;;14.66;50.99
48390;BME280;34643;47.964;7.982;2023-04-08T08:48:44;97116.78;;;14.66;50.88
48390;BME280;34643;47.964;7.982;2023-04-08T08:53:44;97118.50;;;14.66;51.06
48390;BME280;34643;47.964;7.982;2023-04-08T08:58:45;97122.88;;;14.65;50.91
48390;BME280;34643;47.964;7.982;2023-04-08T09:03:46;97125.47;;;14.65;50.90
48390;BME280;34643;47.964;7.982;2023-04-08T09:09:05;97131.63;;;14.64;50.88
48390;BME280;34643;47.964;7.982;2023-04-08T09:14:24;97129.84;;;14.64;51.12
48390;BME280;34643;47.964;7.982;2023-04-08T09:19:25;97128.16;;;14.63;51.13
48390;BME280;34643;47.964;7.982;2023-04-08T09:24:26;97130.75;;;14.63;51.14
48390;BME280;34643;47.964;7.982;2023-04-08T09:29:27;97129.00;;;14.64;51.07
48390;BME280;34643;47.964;7.982;2023-04-08T09:34:27;97130.75;;;14.63;50.97
48390;BME280;34643;47.964;7.982;2023-04-08T09:39:29;97146.34;;;14.63;51.02
48390;BME280;34643;47.964;7.982;2023-04-08T09:44:29;97136.91;;;14.62;50.99
48390;BME280;34643;47.964;7.982;2023-04-08T09:49:41;97136.91;;;14.62;51.22
48390;BME280;34643;47.964;7.982;2023-04-08T10:00:17;97142.19;;;14.61;51.15
48390;BME280;34643;47.964;7.982;2023-04-08T10:05:16;97147.28;;;14.62;51.18
48390;BME280;34643;47.964;7.982;2023-04-08T10:10:17;97147.38;;;14.61;50.99
48390;BME280;34643;47.964;7.982;2023-04-08T10:15:28;97143.94;;;14.60;51.04
48390;BME280;34643;47.964;7.982;2023-04-08T10:25:39;97140.50;;;14.60;51.05
48390;BME280;34643;47.964;7.982;2023-04-08T10:35:47;97148.38;;;14.58;51.11
48390;BME280;34643;47.964;7.982;2023-04-08T10:40:48;97143.16;;;14.58;51.20
48390;BME280;34643;47.964;7.982;2023-04-08T10:45:48;97143.16;;;14.58;51.03
48390;BME280;34643;47.964;7.982;2023-04-08T10:51:01;97144.94;;;14.58;51.09
48390;BME280;34643;47.964;7.982;2023-04-08T10:56:14;97140.66;;;14.57;51.30
48390;BME280;34643;47.964;7.982;2023-04-08T11:01:16;97138.88;;;14.57;51.29
48390;BME280;34643;47.964;7.982;2023-04-08T11:06:17;97140.66;;;14.57;51.14
48390;BME280;34643;47.964;7.982;2023-04-08T11:11:18;97135.53;;;14.55;51.01
48390;BME280;34643;47.964;7.982;2023-04-08T11:16:19;97145.00;;;14.56;51.23
48390;BME280;34643;47.964;7.982;2023-04-08T11:21:22;97132.09;;;14.55;51.39
48390;BME280;34643;47.964;7.982;2023-04-08T11:26:22;97137.28;;;14.55;51.05
48390;BME280;34643;47.964;7.982;2023-04-08T11:31:23;97143.34;;;14.55;51.30
48390;BME280;34643;47.964;7.982;2023-04-08T11:36:24;97135.53;;;14.55;51.08
48390;BME280;34643;47.964;7.982;2023-04-08T11:41:34;97132.09;;;14.55;51.16
48390;BME280;34643;47.964;7.982;2023-04-08T11:46:35;97132.09;;;14.55;51.05
48390;BME280;34643;47.964;7.982;2023-04-08T11:56:53;97125.22;;;14.54;51.05
48390;BME280;34643;47.964;7.982;2023-04-08T12:01:53;97124.41;;;14.53;51.52
48390;BME280;34643;47.964;7.982;2023-04-08T12:06:54;97127.00;;;14.53;51.36
48390;BME280;34643;47.964;7.982;2023-04-08T12:11:54;97125.31;;;14.52;51.19
48390;BME280;34643;47.964;7.982;2023-04-08T12:16:56;97125.31;;;14.52;51.13
48390;BME280;34643;47.964;7.982;2023-04-08T12:21:57;97124.41;;;14.53;51.37
48390;BME280;34643;47.964;7.982;2023-04-08T12:26:57;97123.63;;;14.51;51.51
48390;BME280;34643;47.964;7.982;2023-04-08T12:31:58;97125.31;;;14.52;51.25
48390;BME280;34643;47.964;7.982;2023-04-08T12:36:58;97117.53;;;14.52;51.22
48390;BME280;34643;47.964;7.982;2023-04-08T12:41:59;97117.53;;;14.52;51.06
48390;BME280;34643;47.964;7.982;2023-04-08T12:46:59;97113.16;;;14.53;51.24
48390;BME280;34643;47.964;7.982;2023-04-08T12:51:59;97101.13;;;14.52;51.39
48390;BME280;34643;47.964;7.982;2023-04-08T12:56:59;97103.72;;;14.52;51.24
48390;BME280;34643;47.964;7.982;2023-04-08T13:02:00;97106.41;;;14.50;51.32
48390;BME280;34643;47.964;7.982;2023-04-08T13:07:00;97103.78;;;14.50;51.23
48390;BME280;34643;47.964;7.982;2023-04-08T13:12:01;97106.41;;;14.50;51.44
48390;BME280;34643;47.964;7.982;2023-04-08T13:17:03;97108.16;;;14.50;51.35
48390;BME280;34643;47.964;7.982;2023-04-08T13:22:03;97106.47;;;14.49;51.35
48390;BME280;34643;47.964;7.982;2023-04-08T13:27:03;97107.31;;;14.49;51.27
48390;BME280;34643;47.964;7.982;2023-04-08T13:32:04;97105.66;;;14.48;51.42
48390;BME280;34643;47.964;7.982;2023-04-08T13:37:04;97107.31;;;14.49;51.60
48390;BME280;34643;47.964;7.982;2023-04-08T13:42:04;97096.09;;;14.49;51.43
48390;BME280;34643;47.964;7.982;2023-04-08T13:47:05;97105.66;;;14.48;51.34
48390;BME280;34643;47.964;7.982;2023-04-08T13:52:05;97103.97;;;14.47;51.51
48390;BME280;34643;47.964;7.982;2023-04-08T13:57:06;97117.78;;;14.48;51.22
48390;BME280;34643;47.964;7.982;2023-04-08T14:02:06;97104.78;;;14.48;51.68
48390;BME280;34643;47.964;7.982;2023-04-08T14:07:06;97112.69;;;14.46;51.59
48390;BME280;34643;47.964;7.982;2023-04-08T14:12:07;97110.09;;;14.46;51.52
48390;BME280;34643;47.964;7.982;2023-04-08T14:17:07;97111.00;;;14.45;51.56
48390;BME280;34643;47.964;7.982;2023-04-08T14:22:07;97109.25;;;14.45;51.26
48390;BME280;34643;47.964;7.982;2023-04-08T14:27:07;97110.19;;;14.44;51.33
48390;BME280;34643;47.964;7.982;2023-04-08T14:32:08;97106.72;;;14.44;51.55
48390;BME280;34643;47.964;7.982;2023-04-08T14:37:08;97111.91;;;14.44;51.54
48390;BME280;34643;47.964;7.982;2023-04-08T14:42:08;97111.09;;;14.43;51.57
48390;BME280;34643;47.964;7.982;2023-04-08T14:47:09;97110.28;;;14.43;51.20
48390;BME280;34643;47.964;7.982;2023-04-08T14:52:09;97118.06;;;14.43;51.54
48390;BME280;34643;47.964;7.982;2023-04-08T14:57:10;97116.38;;;14.42;51.41
48390;BME280;34643;47.964;7.982;2023-04-08T15:02:10;97116.38;;;14.42;51.55
48390;BME280;34643;47.964;7.982;2023-04-08T15:07:11;97113.78;;;14.42;51.38
48390;BME280;34643;47.964;7.982;2023-04-08T15:12:11;97115.53;;;14.41;51.59
48390;BME280;34643;47.964;7.982;2023-04-08T15:17:12;97122.50;;;14.41;51.48
48390;BME280;34643;47.964;7.982;2023-04-08T15:22:12;97122.50;;;14.41;51.43
48390;BME280;34643;47.964;7.982;2023-04-08T15:27:12;97120.81;;;14.40;51.54
48390;BME280;34643;47.964;7.982;2023-04-08T15:32:13;97134.63;;;14.40;51.48
48390;BME280;34643;47.964;7.982;2023-04-08T15:37:13;97123.41;;;14.40;51.43
48390;BME280;34643;47.964;7.982;2023-04-08T15:42:14;97118.31;;;14.38;51.58
48390;BME280;34643;47.964;7.982;2023-04-08T15:47:15;97127.78;;;14.39;51.45
48390;BME280;34643;47.964;7.982;2023-04-08T15:52:15;97134.72;;;14.39;51.41
48390;BME280;34643;47.964;7.982;2023-04-08T15:57:16;97127.88;;;14.38;51.38
48390;BME280;34643;47.964;7.982;2023-04-08T16:02:16;97128.69;;;14.38;51.55
48390;BME280;34643;47.964;7.982;2023-04-08T16:07:17;97137.31;;;14.39;51.52
48390;BME280;34643;47.964;7.982;2023-04-08T16:12:17;97143.44;;;14.38;51.69
48390;BME280;34643;47.964;7.982;2023-04-08T16:17:18;97140.03;;;14.37;51.57
48390;BME280;34643;47.964;7.982;2023-04-08T16:22:18;97133.97;;;14.37;51.50
48390;BME280;34643;47.964;7.982;2023-04-08T16:27:19;97133.97;;;14.37;51.60
48390;BME280;34643;47.964;7.982;2023-04-08T16:32:19;97138.34;;;14.36;51.66
48390;BME280;34643;47.964;7.982;2023-04-08T16:37:20;97140.09;;;14.36;51.66
48390;BME280;34643;47.964;7.982;2023-04-08T16:42:21;97141.84;;;14.35;51.42
48390;BME280;34643;47.964;7.982;2023-04-08T16:47:21;97151.41;;;14.35;51.63
48390;BME280;34643;47.964;7.982;2023-04-08T16:52:22;97155.78;;;14.34;51.48
48390;BME280;34643;47.964;7.982;2023-04-08T16:57:22;97156.59;;;14.35;51.52
48390;BME280;34643;47.964;7.982;2023-04-08T17:02:22;97149.75;;;14.34;51.64
48390;BME280;34643;47.964;7.982;2023-04-08T17:07:23;97154.94;;;14.34;51.48
48390;BME280;34643;47.964;7.982;2023-04-08T17:12:23;97151.47;;;14.33;51.45
48390;BME280;34643;47.964;7.982;2023-04-08T17:17:23;97161.97;;;14.32;51.30
48390;BME280;34643;47.964;7.982;2023-04-08T17:22:24;97164.56;;;14.32;51.38
48390;BME280;34643;47.964;7.982;2023-04-08T17:27:24;97164.56;;;14.32;51.53
48390;BME280;34643;47.964;7.982;2023-04-08T17:32:25;97166.31;;;14.31;51.75
48390;BME280;34643;47.964;7.982;2023-04-08T17:37:25;97164.66;;;14.30;51.47
48390;BME280;34643;47.964;7.982;2023-04-08T17:42:25;97165.50;;;14.31;51.73
48390;BME280;34643;47.964;7.982;2023-04-08T17:47:26;97174.09;;;14.31;51.50
48390;BME280;34643;47.964;7.982;2023-04-08T17:52:26;97183.75;;;14.29;51.50
48390;BME280;34643;47.964;7.982;2023-04-08T17:57:27;97184.56;;;14.30;51.46
48390;BME280;34643;47.964;7.982;2023-04-08T18:02:27;97188.13;;;14.29;51.69
48390;BME280;34643;47.964;7.982;2023-04-08T18:07:27;97190.72;;;14.29;51.59
48390;BME280;34643;47.964;7.982;2023-04-08T18:12:28;97196.81;;;14.27;51.75
48390;BME280;34643;47.964;7.982;2023-04-08T18:17:28;97203.78;;;14.27;51.47
48390;BME280;34643;47.964;7.982;2023-04-08T18:22:28;97204.59;;;14.27;51.48
48390;BME280;34643;47.964;7.982;2023-04-08T18:27:29;97210.75;;;14.26;51.76
48390;BME280;34643;47.964;7.982;2023-04-08T18:32:29;97213.41;;;14.25;51.75
48390;BME280;34643;47.964;7.982;2023-04-08T18:37:29;97224.63;;;14.25;51.75
48390;BME280;34643;47.964;7.982;2023-04-08T18:42:30;97232.41;;;14.25;51.84
48390;BME280;34643;47.964;7.982;2023-04-08T18:47:30;97234.19;;;14.25;51.77
48390;BME280;34643;47.964;7.982;2023-04-08T18:52:31;97241.13;;;14.24;51.40
48390;BME280;34643;47.964;7.982;2023-04-08T18:57:31;97248.91;;;14.24;51.95
48390;BME280;34643;47.964;7.982;2023-04-08T19:02:32;97248.06;;;14.24;51.40
48390;BME280;34643;47.964;7.982;2023-04-08T19:07:32;97253.28;;;14.24;51.75
48390;BME280;34643;47.964;7.982;2023-04-08T19:12:33;97255.94;;;14.22;51.84
48390;BME280;34643;47.964;7.982;2023-04-08T19:17:33;97256.78;;;14.23;51.58
48390;BME280;34643;47.964;7.982;2023-04-08T19:22:33;97256.88;;;14.21;51.58
48390;BME280;34643;47.964;7.982;2023-04-08T19:27:34;97257.72;;;14.22;51.56
48390;BME280;34643;47.964;7.982;2023-04-08T19:32:34;97262.91;;;14.22;51.63
48390;BME280;34643;47.964;7.982;2023-04-08T19:37:35;97264.66;;;14.21;51.78
48390;BME280;34643;47.964;7.982;2023-04-08T19:42:35;97264.66;;;14.21;51.57
48390;BME280;34643;47.964;7.982;2023-04-08T19:47:36;97264.66;;;14.21;51.66
48390;BME280;34643;47.964;7.982;2023-04-08T19:52:36;97273.38;;;14.20;51.36
48390;BME280;34643;47.964;7.982;2023-04-08T19:57:38;97262.16;;;14.20;51.70
48390;BME280;34643;47.964;7.982;2023-04-08T20:02:38;97269.09;;;14.19;51.71
48390;BME280;34643;47.964;7.982;2023-04-08T20:07:39;97276.88;;;14.19;51.75
48390;BME280;34643;47.964;7.982;2023-04-08T20:12:39;97270.03;;;14.18;51.43
48390;BME280;34643;47.964;7.982;2023-04-08T20:17:42;97270.03;;;14.18;51.89
48390;BME280;34643;47.964;7.982;2023-04-08T20:22:42;97270.84;;;14.19;51.73
48390;BME280;34643;47.964;7.982;2023-04-08T20:27:43;97266.59;;;14.18;51.45
48390;BME280;34643;47.964;7.982;2023-04-08T20:32:43;97259.72;;;14.17;51.90
48390;BME280;34643;47.964;7.982;2023-04-08T20:37:43;97266.66;;;14.16;51.77
48390;BME280;34643;47.964;7.982;2023-04-08T20:42:43;97262.31;;;14.17;51.70
48390;BME280;34643;47.964;7.982;2023-04-08T20:47:44;97267.50;;;14.17;51.68
48390;BME280;34643;47.964;7.982;2023-04-08T20:52:45;97271.88;;;14.16;51.45
48390;BME280;34643;47.964;7.982;2023-04-08T20:57:46;97269.28;;;14.16;51.60
48390;BME280;34643;47.964;7.982;2023-04-08T21:02:47;97265.81;;;14.16;51.40
48390;BME280;34643;47.964;7.982;2023-04-08T21:07:47;97271.00;;;14.16;51.72
48390;BME280;34643;47.964;7.982;2023-04-08T21:12:47;97258.13;;;14.14;51.38
48390;BME280;34643;47.964;7.982;2023-04-08T21:17:48;97261.56;;;14.15;51.52
48390;BME280;34643;47.964;7.982;2023-04-08T21:22:48;97260.72;;;14.14;51.61
48390;BME280;34643;47.964;7.982;2023-04-08T21:27:48;97258.13;;;14.14;51.51
48390;BME280;34643;47.964;7.982;2023-04-08T21:32:48;97259.03;;;14.13;51.54
48390;BME280;34643;47.964;7.982;2023-04-08T21:37:49;97258.22;;;14.13;51.88
48390;BME280;34643;47.964;7.982;2023-04-08T21:42:49;97258.22;;;14.13;51.47
48390;BME280;34643;47.964;7.982;2023-04-08T21:47:50;97260.06;;;14.11;51.84
48390;BME280;34643;47.964;7.982;2023-04-08T21:52:52;97268.66;;;14.11;51.74
48390;BME280;34643;47.964;7.982;2023-04-08T21:57:52;97265.25;;;14.11;51.80
48390;BME280;34643;47.964;7.982;2023-04-08T22:02:52;97267.91;;;14.09;51.66
48390;BME280;34643;47.964;7.982;2023-04-08T22:07:53;97261.88;;;14.08;51.76
48390;BME280;34643;47.964;7.982;2023-04-08T22:12:53;97255.78;;;14.10;51.51
48390;BME280;34643;47.964;7.982;2023-04-08T22:17:54;97261.88;;;14.08;51.92
48390;BME280;34643;47.964;7.982;2023-04-08T22:22:54;97258.44;;;14.08;51.52
48390;BME280;34643;47.964;7.982;2023-04-08T22:27:55;97252.44;;;14.07;51.67
48390;BME280;34643;47.964;7.982;2023-04-08T22:32:56;97255.03;;;14.07;51.73
48390;BME280;34643;47.964;7.982;2023-04-08T22:37:56;97258.44;;;14.08;51.78
48390;BME280;34643;47.964;7.982;2023-04-08T22:42:56;97259.38;;;14.07;51.49
48390;BME280;34643;47.964;7.982;2023-04-08T22:47:57;97260.28;;;14.06;51.74
48390;BME280;34643;47.964;7.982;2023-04-08T22:52:57;97263.72;;;14.06;51.77
48390;BME280;34643;47.964;7.982;2023-04-08T22:57:57;97254.28;;;14.05;51.74
48390;BME280;34643;47.964;7.982;2023-04-08T23:02:58;97253.41;;;14.05;51.43
48390;BME280;34643;47.964;7.982;2023-04-08T23:07:59;97246.56;;;14.04;51.89
48390;BME280;34643;47.964;7.982;2023-04-08T23:12:59;97246.56;;;14.04;51.52
48390;BME280;34643;47.964;7.982;2023-04-08T23:18:00;97250.06;;;14.03;51.72
48390;BME280;34643;47.964;7.982;2023-04-08T23:23:00;97252.66;;;14.03;51.47
48390;BME280;34643;47.964;7.982;2023-04-08T23:28:02;97257.03;;;14.02;51.50
48390;BME280;34643;47.964;7.982;2023-04-08T23:33:02;97252.72;;;14.01;51.41
48390;BME280;34643;47.964;7.982;2023-04-08T23:38:03;97254.50;;;14.01;51.55
48390;BME280;34643;47.964;7.982;2023-04-08T23:43:03;97251.16;;;13.99;51.65
48390;BME280;34643;47.964;7.982;2023-04-08T23:48:03;97249.38;;;13.99;51.77
48390;BME280;34643;47.964;7.982;2023-04-08T23:53:03;97243.38;;;13.99;51.44
48390;BME280;34643;47.964;7.982;2023-04-08T23:58:04;97249.38;;;13.99;51.76
